sensor_id;sensor_type;location;lat;lon;timestamp;temperature;humidity
22674;DHT22;11504;43.334;21.918;2023-02-01T00:02:45;4.6;100.0
22674;DHT22;11504;43.334;21.918;2023-02-01T00:07:22;4.7;100.0
22674;DHT22;11504;43.334;21.918;2023-02-01T00:11:58;4.7;100.0
22674;DHT22;11504;43.334;21.918;2023-02-01T00:16:36;4.7;100.0
22674;DHT22;11504;43.334;21.918;2023-02-01T00:21:18;4.7;100.0
22674;DHT22;11504;43.334;21.918;2023-02-01T00:25:55;4.7;100.0
22674;DHT22;11504;43.334;21.918;2023-02-01T00:30:31;4.7;100.0
22674;DHT22;11504;43.334;21.918;2023-02-01T00:35:09;4.6;100.0
22674;DHT22;11504;43.334;21.918;2023-02-01T00:39:45;4.6;100.0
22674;DHT22;11504;43.334;21.918;2023-02-01T00:44:22;4.6;100.0
22674;DHT22;11504;43.334;21.918;2023-02-01T00:48:59;4.6;100.0
22674;DHT22;11504;43.334;21.918;2023-02-01T00:53:37;4.6;100.0
22674;DHT22;11504;43.334;21.918;2023-02-01T00:58:15;4.6;100.0
22674;DHT22;11504;43.334;21.918;2023-02-01T01:02:51;4.6;100.0
22674;DHT22;11504;43.334;21.918;2023-02-01T01:07:28;4.6;100.0
22674;DHT22;11504;43.334;21.918;2023-02-01T01:12:05;4.6;100.0
22674;DHT22;11504;43.334;21.918;2023-02-01T01:16:41;4.6;100.0
22674;DHT22;11504;43.334;21.918;2023-02-01T01:21:19;4.6;100.0
22674;DHT22;11504;43.334;21.918;2023-02-01T01:35:12;4.6;100.0
22674;DHT22;11504;43.334;21.918;2023-02-01T01:39:49;4.6;100.0
22674;DHT22;11504;43.334;21.918;2023-02-01T01:45:35;4.6;100.0
22674;DHT22;11504;43.334;21.918;2023-02-01T01:50:28;4.6;100.0
22674;DHT22;11504;43.334;21.918;2023-02-01T01:55:08;4.6;100.0
22674;DHT22;11504;43.334;21.918;2023-02-01T02:00:05;4.6;100.0
22674;DHT22;11504;43.334;21.918;2023-02-01T02:14:00;4.6;100.0
22674;DHT22;11504;43.334;21.918;2023-02-01T02:19:28;4.6;100.0
22674;DHT22;11504;43.334;21.918;2023-02-01T02:25:47;4.6;100.0
22674;DHT22;11504;43.334;21.918;2023-02-01T02:31:58;4.6;100.0
22674;DHT22;11504;43.334;21.918;2023-02-01T02:39:31;4.6;100.0
22674;DHT22;11504;43.334;21.918;2023-02-01T02:44:49;4.5;100.0
22674;DHT22;11504;43.334;21.918;2023-02-01T02:49:55;4.5;100.0
22674;DHT22;11504;43.334;21.918;2023-02-01T02:54:52;4.4;100.0
22674;DHT22;11504;43.334;21.918;2023-02-01T02:59:40;4.4;100.0
22674;DHT22;11504;43.334;21.918;2023-02-01T03:04:21;4.3;100.0
22674;DHT22;11504;43.334;21.918;2023-02-01T03:09:17;4.3;100.0
22674;DHT22;11504;43.334;21.918;2023-02-01T03:14:04;4.2;100.0
22674;DHT22;11504;43.334;21.918;2023-02-01T03:19:02;4.2;100.0
22674;DHT22;11504;43.334;21.918;2023-02-01T03:23:47;4.2;100.0
22674;DHT22;11504;43.334;21.918;2023-02-01T03:28:36;4.2;100.0
22674;DHT22;11504;43.334;21.918;2023-02-01T03:33:27;4.2;100.0
22674;DHT22;11504;43.334;21.918;2023-02-01T03:38:25;4.2;100.0
22674;DHT22;11504;43.334;21.918;2023-02-01T03:43:20;4.2;100.0
22674;DHT22;11504;43.334;21.918;2023-02-01T03:48:06;4.3;100.0
22674;DHT22;11504;43.334;21.918;2023-02-01T03:53:02;4.3;100.0
22674;DHT22;11504;43.334;21.918;2023-02-01T03:58:06;4.2;100.0
22674;DHT22;11504;43.334;21.918;2023-02-01T04:02:49;4.2;100.0
22674;DHT22;11504;43.334;21.918;2023-02-01T04:07:27;4.2;100.0
22674;DHT22;11504;43.334;21.918;2023-02-01T04:12:05;4.2;100.0
22674;DHT22;11504;43.334;21.918;2023-02-01T04:16:42;4.2;100.0
22674;DHT22;11504;43.334;21.918;2023-02-01T04:21:19;4.2;100.0
22674;DHT22;11504;43.334;21.918;2023-02-01T04:26:02;4.2;100.0
22674;DHT22;11504;43.334;21.918;2023-02-01T04:30:38;4.2;100.0
22674;DHT22;11504;43.334;21.918;2023-02-01T04:35:15;4.2;100.0
22674;DHT22;11504;43.334;21.918;2023-02-01T04:39:51;4.2;100.0
22674;DHT22;11504;43.334;21.918;2023-02-01T04:58:16;4.3;100.0
22674;DHT22;11504;43.334;21.918;2023-02-01T05:02:53;4.3;100.0
22674;DHT22;11504;43.334;21.918;2023-02-01T05:07:29;4.3;100.0
22674;DHT22;11504;43.334;21.918;2023-02-01T05:12:08;4.3;100.0
22674;DHT22;11504;43.334;21.918;2023-02-01T05:16:46;4.3;100.0
22674;DHT22;11504;43.334;21.918;2023-02-01T05:21:23;4.3;100.0
22674;DHT22;11504;43.334;21.918;2023-02-01T05:35:16;4.5;100.0
22674;DHT22;11504;43.334;21.918;2023-02-01T05:39:52;4.5;100.0
22674;DHT22;11504;43.334;21.918;2023-02-01T05:44:29;4.5;100.0
22674;DHT22;11504;43.334;21.918;2023-02-01T05:49:05;4.5;100.0
22674;DHT22;11504;43.334;21.918;2023-02-01T05:53:42;4.5;100.0
22674;DHT22;11504;43.334;21.918;2023-02-01T05:58:18;4.5;100.0
22674;DHT22;11504;43.334;21.918;2023-02-01T06:02:55;4.5;100.0
22674;DHT22;11504;43.334;21.918;2023-02-01T06:07:31;4.5;100.0
22674;DHT22;11504;43.334;21.918;2023-02-01T06:12:08;4.5;100.0
22674;DHT22;11504;43.334;21.918;2023-02-01T06:16:44;4.5;100.0
22674;DHT22;11504;43.334;21.918;2023-02-01T06:21:21;4.5;100.0
22674;DHT22;11504;43.334;21.918;2023-02-01T06:26:06;4.5;100.0
22674;DHT22;11504;43.334;21.918;2023-02-01T06:30:43;4.5;100.0
22674;DHT22;11504;43.334;21.918;2023-02-01T06:35:20;4.4;100.0
22674;DHT22;11504;43.334;21.918;2023-02-01T06:39:57;4.4;100.0
22674;DHT22;11504;43.334;21.918;2023-02-01T06:44:33;4.4;100.0
22674;DHT22;11504;43.334;21.918;2023-02-01T06:49:10;4.4;100.0
22674;DHT22;11504;43.334;21.918;2023-02-01T06:53:47;4.4;100.0
22674;DHT22;11504;43.334;21.918;2023-02-01T06:58:28;4.4;100.0
22674;DHT22;11504;43.334;21.918;2023-02-01T07:03:05;4.4;100.0
22674;DHT22;11504;43.334;21.918;2023-02-01T07:07:42;4.5;100.0
22674;DHT22;11504;43.334;21.918;2023-02-01T07:12:19;4.5;100.0
22674;DHT22;11504;43.334;21.918;2023-02-01T07:16:55;4.8;100.0
22674;DHT22;11504;43.334;21.918;2023-02-01T07:21:32;4.8;100.0
22674;DHT22;11504;43.334;21.918;2023-02-01T07:26:14;5.0;100.0
22674;DHT22;11504;43.334;21.918;2023-02-01T07:30:52;5.0;100.0
22674;DHT22;11504;43.334;21.918;2023-02-01T07:35:29;5.2;100.0
22674;DHT22;11504;43.334;21.918;2023-02-01T07:40:11;5.2;100.0
22674;DHT22;11504;43.334;21.918;2023-02-01T07:44:47;5.4;100.0
22674;DHT22;11504;43.334;21.918;2023-02-01T07:49:23;5.4;100.0
22674;DHT22;11504;43.334;21.918;2023-02-01T07:54:00;5.4;100.0
22674;DHT22;11504;43.334;21.918;2023-02-01T07:58:36;5.4;100.0
22674;DHT22;11504;43.334;21.918;2023-02-01T08:03:12;5.4;100.0
22674;DHT22;11504;43.334;21.918;2023-02-01T08:17:03;6.2;100.0
22674;DHT22;11504;43.334;21.918;2023-02-01T08:21:39;6.2;100.0
22674;DHT22;11504;43.334;21.918;2023-02-01T08:26:24;6.2;100.0
22674;DHT22;11504;43.334;21.918;2023-02-01T08:31:13;6.2;100.0
22674;DHT22;11504;43.334;21.918;2023-02-01T08:35:50;6.2;100.0
22674;DHT22;11504;43.334;21.918;2023-02-01T08:40:26;6.2;100.0
22674;DHT22;11504;43.334;21.918;2023-02-01T08:54:17;9.0;100.0
22674;DHT22;11504;43.334;21.918;2023-02-01T08:58:54;9.0;100.0
22674;DHT22;11504;43.334;21.918;2023-02-01T09:03:30;9.0;100.0
22674;DHT22;11504;43.334;21.918;2023-02-01T09:08:07;9.0;100.0
22674;DHT22;11504;43.334;21.918;2023-02-01T09:12:44;9.0;100.0
22674;DHT22;11504;43.334;21.918;2023-02-01T09:17:20;9.0;100.0
22674;DHT22;11504;43.334;21.918;2023-02-01T09:21:56;9.0;100.0
22674;DHT22;11504;43.334;21.918;2023-02-01T09:35:45;10.7;100.0
22674;DHT22;11504;43.334;21.918;2023-02-01T09:40:22;10.7;100.0
22674;DHT22;11504;43.334;21.918;2023-02-01T09:45:29;10.7;100.0
22674;DHT22;11504;43.334;21.918;2023-02-01T09:50:28;10.7;100.0
22674;DHT22;11504;43.334;21.918;2023-02-01T09:55:25;10.7;100.0
22674;DHT22;11504;43.334;21.918;2023-02-01T10:00:28;10.7;100.0
22674;DHT22;11504;43.334;21.918;2023-02-01T10:15:28;10.3;100.0
22674;DHT22;11504;43.334;21.918;2023-02-01T10:20:36;10.3;100.0
22674;DHT22;11504;43.334;21.918;2023-02-01T10:25:41;10.3;100.0
22674;DHT22;11504;43.334;21.918;2023-02-01T10:30:33;10.3;100.0
22674;DHT22;11504;43.334;21.918;2023-02-01T10:35:31;11.4;100.0
22674;DHT22;11504;43.334;21.918;2023-02-01T10:40:24;11.4;100.0
22674;DHT22;11504;43.334;21.918;2023-02-01T10:45:13;12.5;100.0
22674;DHT22;11504;43.334;21.918;2023-02-01T10:50:29;12.5;100.0
22674;DHT22;11504;43.334;21.918;2023-02-01T10:55:50;12.4;100.0
22674;DHT22;11504;43.334;21.918;2023-02-01T11:00:45;12.4;100.0
22674;DHT22;11504;43.334;21.918;2023-02-01T11:05:24;12.4;100.0
22674;DHT22;11504;43.334;21.918;2023-02-01T11:10:00;12.4;100.0
22674;DHT22;11504;43.334;21.918;2023-02-01T11:14:40;12.4;100.0
22674;DHT22;11504;43.334;21.918;2023-02-01T11:19:18;12.4;100.0
22674;DHT22;11504;43.334;21.918;2023-02-01T11:24:04;12.4;100.0
22674;DHT22;11504;43.334;21.918;2023-02-01T11:29:03;12.3;100.0
22674;DHT22;11504;43.334;21.918;2023-02-01T11:34:00;12.3;100.0
22674;DHT22;11504;43.334;21.918;2023-02-01T11:38:37;11.9;100.0
22674;DHT22;11504;43.334;21.918;2023-02-01T11:43:28;11.9;100.0
22674;DHT22;11504;43.334;21.918;2023-02-01T11:48:16;11.5;100.0
22674;DHT22;11504;43.334;21.918;2023-02-01T11:53:43;11.5;100.0
22674;DHT22;11504;43.334;21.918;2023-02-01T11:59:40;11.5;100.0
22674;DHT22;11504;43.334;21.918;2023-02-01T12:16:07;10.7;100.0
22674;DHT22;11504;43.334;21.918;2023-02-01T12:21:30;10.7;100.0
22674;DHT22;11504;43.334;21.918;2023-02-01T12:26:57;10.7;100.0
22674;DHT22;11504;43.334;21.918;2023-02-01T12:32:23;10.7;100.0
22674;DHT22;11504;43.334;21.918;2023-02-01T12:37:51;11.0;100.0
22674;DHT22;11504;43.334;21.918;2023-02-01T12:43:00;11.0;100.0
22674;DHT22;11504;43.334;21.918;2023-02-01T12:47:54;11.2;100.0
22674;DHT22;11504;43.334;21.918;2023-02-01T12:52:48;11.2;100.0
22674;DHT22;11504;43.334;21.918;2023-02-01T12:57:39;11.2;100.0
22674;DHT22;11504;43.334;21.918;2023-02-01T13:02:42;11.2;100.0
22674;DHT22;11504;43.334;21.918;2023-02-01T13:37:34;11.5;100.0
22674;DHT22;11504;43.334;21.918;2023-02-01T13:42:27;11.5;100.0
22674;DHT22;11504;43.334;21.918;2023-02-01T13:47:31;11.5;100.0
22674;DHT22;11504;43.334;21.918;2023-02-01T13:52:41;11.5;100.0
22674;DHT22;11504;43.334;21.918;2023-02-01T13:57:42;11.4;100.0
22674;DHT22;11504;43.334;21.918;2023-02-01T14:03:18;11.4;100.0
22674;DHT22;11504;43.334;21.918;2023-02-01T14:08:35;11.4;100.0
22674;DHT22;11504;43.334;21.918;2023-02-01T14:13:30;11.4;100.0
22674;DHT22;11504;43.334;21.918;2023-02-01T14:19:01;11.4;100.0
22674;DHT22;11504;43.334;21.918;2023-02-01T14:23:48;11.4;100.0
22674;DHT22;11504;43.334;21.918;2023-02-01T14:28:31;11.4;100.0
22674;DHT22;11504;43.334;21.918;2023-02-01T14:33:27;11.4;100.0
22674;DHT22;11504;43.334;21.918;2023-02-01T14:38:04;11.4;100.0
22674;DHT22;11504;43.334;21.918;2023-02-01T14:42:50;11.4;100.0
22674;DHT22;11504;43.334;21.918;2023-02-01T14:57:00;11.2;100.0
22674;DHT22;11504;43.334;21.918;2023-02-01T15:01:57;11.2;100.0
22674;DHT22;11504;43.334;21.918;2023-02-01T15:06:44;11.2;100.0
22674;DHT22;11504;43.334;21.918;2023-02-01T15:11:22;11.2;100.0
22674;DHT22;11504;43.334;21.918;2023-02-01T15:16:11;11.2;100.0
22674;DHT22;11504;43.334;21.918;2023-02-01T15:21:00;11.2;100.0
22674;DHT22;11504;43.334;21.918;2023-02-01T15:35:03;10.5;100.0
22674;DHT22;11504;43.334;21.918;2023-02-01T15:40:22;10.5;100.0
22674;DHT22;11504;43.334;21.918;2023-02-01T15:45:00;10.5;100.0
22674;DHT22;11504;43.334;21.918;2023-02-01T15:49:50;10.5;100.0
22674;DHT22;11504;43.334;21.918;2023-02-01T15:54:50;10.5;100.0
22674;DHT22;11504;43.334;21.918;2023-02-01T15:59:45;10.5;100.0
22674;DHT22;11504;43.334;21.918;2023-02-01T16:55:40;9.0;100.0
22674;DHT22;11504;43.334;21.918;2023-02-01T17:00:19;9.0;100.0
22674;DHT22;11504;43.334;21.918;2023-02-01T17:04:56;9.0;100.0
22674;DHT22;11504;43.334;21.918;2023-02-01T17:09:32;9.0;100.0
22674;DHT22;11504;43.334;21.918;2023-02-01T17:14:21;9.0;100.0
22674;DHT22;11504;43.334;21.918;2023-02-01T17:19:15;8.8;100.0
22674;DHT22;11504;43.334;21.918;2023-02-01T17:23:55;8.8;100.0
22674;DHT22;11504;43.334;21.918;2023-02-01T17:28:31;8.6;100.0
22674;DHT22;11504;43.334;21.918;2023-02-01T17:33:28;8.6;100.0
22674;DHT22;11504;43.334;21.918;2023-02-01T17:38:11;8.5;100.0
22674;DHT22;11504;43.334;21.918;2023-02-01T17:42:48;8.5;100.0
22674;DHT22;11504;43.334;21.918;2023-02-01T17:47:25;8.4;100.0
22674;DHT22;11504;43.334;21.918;2023-02-01T17:52:02;8.4;100.0
22674;DHT22;11504;43.334;21.918;2023-02-01T17:56:39;8.4;100.0
22674;DHT22;11504;43.334;21.918;2023-02-01T18:01:23;8.4;100.0
22674;DHT22;11504;43.334;21.918;2023-02-01T18:15:23;8.0;100.0
22674;DHT22;11504;43.334;21.918;2023-02-01T18:19:59;8.0;100.0
22674;DHT22;11504;43.334;21.918;2023-02-01T18:24:35;8.0;100.0
22674;DHT22;11504;43.334;21.918;2023-02-01T18:29:12;8.0;100.0
22674;DHT22;11504;43.334;21.918;2023-02-01T18:33:49;8.0;100.0
22674;DHT22;11504;43.334;21.918;2023-02-01T18:38:26;8.0;100.0
22674;DHT22;11504;43.334;21.918;2023-02-01T18:43:03;8.0;100.0
22674;DHT22;11504;43.334;21.918;2023-02-01T18:56:51;7.7;100.0
22674;DHT22;11504;43.334;21.918;2023-02-01T19:01:28;7.7;100.0
22674;DHT22;11504;43.334;21.918;2023-02-01T19:06:05;7.7;100.0
22674;DHT22;11504;43.334;21.918;2023-02-01T19:10:42;7.7;100.0
22674;DHT22;11504;43.334;21.918;2023-02-01T19:15:19;7.7;100.0
22674;DHT22;11504;43.334;21.918;2023-02-01T19:19:55;7.7;100.0
22674;DHT22;11504;43.334;21.918;2023-02-01T19:24:32;7.7;100.0
22674;DHT22;11504;43.334;21.918;2023-02-01T19:38:20;7.7;100.0
22674;DHT22;11504;43.334;21.918;2023-02-01T19:42:57;7.7;100.0
22674;DHT22;11504;43.334;21.918;2023-02-01T19:47:34;7.7;100.0
22674;DHT22;11504;43.334;21.918;2023-02-01T19:52:11;7.7;100.0
22674;DHT22;11504;43.334;21.918;2023-02-01T19:56:48;7.7;100.0
22674;DHT22;11504;43.334;21.918;2023-02-01T20:01:25;7.7;100.0
22674;DHT22;11504;43.334;21.918;2023-02-01T20:15:19;7.5;100.0
22674;DHT22;11504;43.334;21.918;2023-02-01T20:19:55;7.5;100.0
22674;DHT22;11504;43.334;21.918;2023-02-01T20:24:32;7.5;100.0
22674;DHT22;11504;43.334;21.918;2023-02-01T20:29:09;7.5;100.0
22674;DHT22;11504;43.334;21.918;2023-02-01T20:33:45;7.5;100.0
22674;DHT22;11504;43.334;21.918;2023-02-01T20:38:23;7.5;100.0
22674;DHT22;11504;43.334;21.918;2023-02-01T20:42:59;7.5;100.0
22674;DHT22;11504;43.334;21.918;2023-02-01T20:47:35;7.5;100.0
22674;DHT22;11504;43.334;21.918;2023-02-01T20:52:11;7.5;100.0
22674;DHT22;11504;43.334;21.918;2023-02-01T20:56:48;7.5;100.0
22674;DHT22;11504;43.334;21.918;2023-02-01T21:01:24;7.5;100.0
22674;DHT22;11504;43.334;21.918;2023-02-01T21:06:06;7.5;100.0
22674;DHT22;11504;43.334;21.918;2023-02-01T21:10:56;7.5;100.0
22674;DHT22;11504;43.334;21.918;2023-02-01T21:15:34;7.5;100.0
22674;DHT22;11504;43.334;21.918;2023-02-01T21:20:12;7.5;100.0
22674;DHT22;11504;43.334;21.918;2023-02-01T21:38:38;7.3;100.0
22674;DHT22;11504;43.334;21.918;2023-02-01T21:43:14;7.3;100.0
22674;DHT22;11504;43.334;21.918;2023-02-01T21:47:50;7.3;100.0
22674;DHT22;11504;43.334;21.918;2023-02-01T21:52:27;7.3;100.0
22674;DHT22;11504;43.334;21.918;2023-02-01T21:57:03;7.3;100.0
22674;DHT22;11504;43.334;21.918;2023-02-01T22:01:41;7.3;100.0
22674;DHT22;11504;43.334;21.918;2023-02-01T22:15:41;7.2;100.0
22674;DHT22;11504;43.334;21.918;2023-02-01T22:20:18;7.2;100.0
22674;DHT22;11504;43.334;21.918;2023-02-01T22:24:54;7.2;100.0
22674;DHT22;11504;43.334;21.918;2023-02-01T22:29:31;7.2;100.0
22674;DHT22;11504;43.334;21.918;2023-02-01T22:34:11;7.2;100.0
22674;DHT22;11504;43.334;21.918;2023-02-01T22:38:48;7.2;100.0
22674;DHT22;11504;43.334;21.918;2023-02-01T22:43:27;7.2;100.0
22674;DHT22;11504;43.334;21.918;2023-02-01T22:57:16;6.8;100.0
22674;DHT22;11504;43.334;21.918;2023-02-01T23:01:53;6.8;100.0
22674;DHT22;11504;43.334;21.918;2023-02-01T23:06:33;6.8;100.0
22674;DHT22;11504;43.334;21.918;2023-02-01T23:11:11;6.8;100.0
22674;DHT22;11504;43.334;21.918;2023-02-01T23:15:47;6.8;100.0
22674;DHT22;11504;43.334;21.918;2023-02-01T23:20:24;6.8;100.0
22674;DHT22;11504;43.334;21.918;2023-02-01T23:38:51;6.4;100.0
22674;DHT22;11504;43.334;21.918;2023-02-01T23:43:30;6.4;100.0
22674;DHT22;11504;43.334;21.918;2023-02-01T23:48:07;6.4;100.0
22674;DHT22;11504;43.334;21.918;2023-02-01T23:52:43;6.4;100.0
22674;DHT22;11504;43.334;21.918;2023-02-01T23:57:20;6.3;100.0
